| time (UTC) | temp F | wind direction | speed MPH | gust MPH | rain 1hr in | rain 24hr in | rain mn in | humidity % | barometer mb |
| 20260508220017 | 64 | 188 | 3.0 | 5.0 | 0.00 | 0.00 | 0.00 | 5 | 1003.3 |
| 20260508215019 | 63 | 166 | 4.0 | 5.0 | 0.00 | 0.00 | 0.00 | 5 | 1003.5 |
| 20260508214018 | 62 | 163 | 4.0 | 4.0 | 0.00 | 0.00 | 0.00 | 5 | 1003.5 |
| 20260508213019 | 63 | 192 | 5.0 | 6.0 | 0.00 | 0.00 | 0.00 | 4 | 1003.5 |
| 20260508212019 | 63 | 219 | 1.0 | 2.0 | 0.00 | 0.00 | 0.00 | 4 | 1003.6 |
| 20260508211018 | 64 | 248 | 3.0 | 4.0 | 0.00 | 0.00 | 0.00 | 4 | 1003.7 |
| 20260508210019 | 64 | 199 | 3.0 | 4.0 | 0.00 | 0.00 | 0.00 | 4 | 1003.7 |
| 20260508205019 | 65 | 217 | 4.0 | 7.0 | 0.00 | 0.00 | 0.00 | 4 | 1003.8 |
| 20260508204018 | 64 | 244 | 2.0 | 3.0 | 0.00 | 0.00 | 0.00 | 4 | 1004.0 |
| 20260508203018 | 63 | 273 | 4.0 | 7.0 | 0.00 | 0.00 | 0.00 | 4 | 1004.0 |
| 20260508202019 | 63 | 176 | 2.0 | 2.0 | 0.00 | 0.00 | 0.00 | 4 | 1004.3 |
| 20260508201019 | 63 | 189 | 2.0 | 3.0 | 0.00 | 0.00 | 0.00 | 4 | 1004.6 |
| 20260508200019 | 63 | 186 | 4.0 | 5.0 | 0.00 | 0.00 | 0.00 | 4 | 1004.6 |
| 20260508195018 | 62 | 163 | 3.0 | 3.0 | 0.00 | 0.00 | 0.00 | 4 | 1004.8 |
| 20260508194018 | 63 | 210 | 2.0 | 3.0 | 0.00 | 0.00 | 0.00 | 4 | 1005.0 |
| 20260508193019 | 63 | 240 | 3.0 | 6.0 | 0.00 | 0.00 | 0.00 | 3 | 1005.0 |
| 20260508192020 | 64 | 210 | 2.0 | 3.0 | 0.00 | 0.00 | 0.00 | 3 | 1005.3 |
| 20260508191020 | 64 | 242 | 8.0 | 8.0 | 0.00 | 0.00 | 0.00 | 3 | 1005.5 |
| 20260508190018 | 63 | 209 | 3.0 | 4.0 | 0.00 | 0.00 | 0.00 | 3 | 1005.5 |
| 20260508185019 | 62 | 272 | 3.0 | 3.0 | 0.00 | 0.00 | 0.00 | 4 | 1005.8 |
| 20260508184018 | 63 | 261 | 4.0 | 5.0 | 0.00 | 0.00 | 0.00 | 4 | 1005.9 |
| 20260508183021 | 63 | 285 | 2.0 | 3.0 | 0.00 | 0.00 | 0.00 | 4 | 1005.9 |
| 20260508182018 | 62 | 190 | 5.0 | 5.0 | 0.00 | 0.00 | 0.00 | 4 | 1005.9 |
| 20260508181019 | 61 | 196 | 5.0 | 5.0 | 0.00 | 0.00 | 0.00 | 4 | 1006.1 |
| 20260508180020 | 63 | 232 | 5.0 | 8.0 | 0.00 | 0.00 | 0.00 | 3 | 1006.1 |
| 20260508175018 | 61 | 207 | 1.0 | 1.0 | 0.00 | 0.00 | 0.00 | 3 | 1006.5 |
| 20260508174021 | 63 | 206 | 4.0 | 6.0 | 0.00 | 0.00 | 0.00 | 4 | 1006.8 |
| 20260508173020 | 62 | 277 | 3.0 | 6.0 | 0.00 | 0.00 | 0.00 | 3 | 1006.8 |
| 20260508172018 | 62 | 0 | 0.0 | 1.0 | 0.00 | 0.00 | 0.00 | 4 | 1007.0 |
| 20260508171021 | 60 | 215 | 4.0 | 4.0 | 0.00 | 0.00 | 0.00 | 4 | 1007.3 |
| 20260508170019 | 60 | 0 | 0.0 | 1.0 | 0.00 | 0.00 | 0.00 | 4 | 1007.3 |
| 20260508165019 | 60 | 208 | 3.0 | 5.0 | 0.00 | 0.00 | 0.00 | 4 | 1007.5 |
| 20260508164020 | 60 | 228 | 1.0 | 3.0 | 0.00 | 0.00 | 0.00 | 4 | 1007.8 |
| 20260508163021 | 60 | 0 | 0.0 | 0.0 | 0.00 | 0.00 | 0.00 | 5 | 1007.8 |
| 20260508162018 | 59 | 251 | 5.0 | 5.0 | 0.00 | 0.00 | 0.00 | 4 | 1008.0 |
| 20260508161020 | 57 | 157 | 1.0 | 1.0 | 0.00 | 0.00 | 0.00 | 4 | 1008.0 |
| 20260508160019 | 57 | 159 | 1.0 | 1.0 | 0.00 | 0.00 | 0.00 | 4 | 1008.0 |
| 20260508155020 | 57 | 117 | 3.0 | 3.0 | 0.00 | 0.00 | 0.00 | 5 | 1008.0 |
| 20260508154018 | 57 | 100 | 3.0 | 5.0 | 0.00 | 0.00 | 0.00 | 4 | 1008.1 |
| 20260508153018 | 57 | 200 | 3.0 | 3.0 | 0.00 | 0.00 | 0.00 | 5 | 1008.1 |
| 20260508152020 | 56 | 0 | 0.0 | 1.0 | 0.00 | 0.00 | 0.00 | 5 | 1008.4 |
| 20260508151020 | 56 | 65 | 1.0 | 1.0 | 0.00 | 0.00 | 0.00 | 5 | 1008.5 |
| 20260508150020 | 55 | 69 | 3.0 | 3.0 | 0.00 | 0.00 | 0.00 | 5 | 1008.5 |
| 20260508145019 | 54 | 43 | 2.0 | 2.0 | 0.00 | 0.00 | 0.00 | 5 | 1008.6 |
| 20260508144017 | 55 | 63 | 1.0 | 1.0 | 0.00 | 0.00 | 0.00 | 5 | 1008.6 |
| 20260508143020 | 54 | 28 | 3.0 | 3.0 | 0.00 | 0.00 | 0.00 | 5 | 1008.6 |
| 20260508142018 | 54 | 0 | 0.0 | 2.0 | 0.00 | 0.00 | 0.00 | 6 | 1008.7 |
| 20260508141020 | 53 | 21 | 2.0 | 2.0 | 0.00 | 0.00 | 0.00 | 6 | 1008.8 |
| 20260508140018 | 52 | 295 | 1.0 | 1.0 | 0.00 | 0.00 | 0.00 | 6 | 1008.8 |
| 20260508135019 | 50 | 270 | 1.0 | 1.0 | 0.00 | 0.00 | 0.00 | 6 | 1009.0 |
| 20260508134020 | 49 | 257 | 3.0 | 3.0 | 0.00 | 0.00 | 0.00 | 7 | 1008.9 |
| 20260508133019 | 49 | 238 | 1.0 | 1.0 | 0.00 | 0.00 | 0.00 | 7 | 1008.9 |
| 20260508132018 | 48 | 0 | 0.0 | 1.0 | 0.00 | 0.00 | 0.00 | 7 | 1009.0 |
| 20260508131019 | 48 | 229 | 2.0 | 2.0 | 0.00 | 0.00 | 0.00 | 7 | 1009.0 |
| 20260508130018 | 47 | 0 | 0.0 | 1.0 | 0.00 | 0.00 | 0.00 | 7 | 1009.0 |
| 20260508125018 | 47 | 229 | 1.0 | 1.0 | 0.00 | 0.00 | 0.00 | 8 | 1008.9 |
| 20260508124018 | 46 | 0 | 0.0 | 0.0 | 0.00 | 0.00 | 0.00 | 8 | 1008.7 |
| 20260508123019 | 46 | 0 | 0.0 | 0.0 | 0.00 | 0.00 | 0.00 | 8 | 1008.7 |
| 20260508122019 | 45 | 223 | 2.0 | 2.0 | 0.00 | 0.00 | 0.00 | 8 | 1008.8 |
| 20260508121019 | 45 | 221 | 1.0 | 1.0 | 0.00 | 0.00 | 0.00 | 8 | 1008.7 |
| 20260508120020 | 44 | 0 | 0.0 | 0.0 | 0.00 | 0.00 | 0.00 | 8 | 1008.7 |
| 20260508115019 | 43 | 0 | 0.0 | 0.0 | 0.00 | 0.00 | 0.00 | 8 | 1008.5 |
| 20260508114017 | 42 | 0 | 0.0 | 0.0 | 0.00 | 0.00 | 0.00 | 8 | 1008.3 |
| 20260508113019 | 41 | 0 | 0.0 | 0.0 | 0.00 | 0.00 | 0.00 | 8 | 1008.3 |
| 20260508112020 | 40 | 0 | 0.0 | 0.0 | 0.00 | 0.00 | 0.00 | 8 | 1008.1 |
| 20260508111018 | 40 | 0 | 0.0 | 0.0 | 0.00 | 0.00 | 0.00 | 8 | 1008.1 |
| 20260508110019 | 39 | 0 | 0.0 | 0.0 | 0.00 | 0.00 | 0.00 | 8 | 1008.1 |
| 20260508105018 | 40 | 0 | 0.0 | 0.0 | 0.00 | 0.00 | 0.00 | 8 | 1008.1 |
| 20260508104017 | 40 | 0 | 0.0 | 0.0 | 0.00 | 0.00 | 0.00 | 8 | 1008.0 |
| 20260508103019 | 40 | 0 | 0.0 | 0.0 | 0.00 | 0.00 | 0.00 | 8 | 1008.0 |
| 20260508102021 | 40 | 0 | 0.0 | 0.0 | 0.00 | 0.00 | 0.00 | 8 | 1007.9 |
| 20260508101019 | 40 | 0 | 0.0 | 1.0 | 0.00 | 0.00 | 0.00 | 8 | 1007.7 |
| 20260508100020 | 41 | 0 | 0.0 | 0.0 | 0.00 | 0.00 | 0.00 | 8 | 1007.7 |
| 20260508095019 | 41 | 0 | 0.0 | 0.0 | 0.00 | 0.00 | 0.00 | 8 | 1007.9 |
| 20260508094018 | 42 | 0 | 0.0 | 0.0 | 0.00 | 0.00 | 0.00 | 8 | 1007.9 |
| 20260508093018 | 42 | 0 | 0.0 | 0.0 | 0.00 | 0.00 | 0.00 | 8 | 1007.9 |
| 20260508092018 | 43 | 0 | 0.0 | 0.0 | 0.00 | 0.00 | 0.00 | 8 | 1008.0 |
| 20260508091018 | 43 | 0 | 0.0 | 0.0 | 0.00 | 0.00 | 0.00 | 8 | 1007.8 |
| 20260508090017 | 44 | 0 | 0.0 | 0.0 | 0.00 | 0.00 | 0.00 | 8 | 1007.8 |
| 20260508085019 | 44 | 0 | 0.0 | 0.0 | 0.00 | 0.00 | 0.00 | 8 | 1007.8 |
| 20260508084019 | 44 | 221 | 1.0 | 1.0 | 0.00 | 0.00 | 0.00 | 8 | 1007.9 |
| 20260508083019 | 44 | 0 | 0.0 | 0.0 | 0.00 | 0.00 | 0.00 | 8 | 1007.9 |
| 20260508082017 | 44 | 221 | 2.0 | 2.0 | 0.00 | 0.00 | 0.00 | 7 | 1008.1 |
| 20260508081019 | 44 | 221 | 2.0 | 2.0 | 0.00 | 0.00 | 0.00 | 7 | 1008.0 |
| 20260508080019 | 44 | 221 | 3.0 | 3.0 | 0.00 | 0.00 | 0.00 | 7 | 1008.0 |
| 20260508075019 | 45 | 0 | 0.0 | 0.0 | 0.00 | 0.00 | 0.00 | 7 | 1008.2 |
| 20260508073018 | 44 | 221 | 3.0 | 3.0 | 0.00 | 0.00 | 0.00 | 7 | 1008.1 |
| 20260508072018 | 44 | 221 | 1.0 | 2.0 | 0.00 | 0.00 | 0.00 | 7 | 1008.1 |
| 20260508071019 | 44 | 0 | 0.0 | 2.0 | 0.00 | 0.00 | 0.00 | 7 | 1008.1 |
| 20260508070018 | 44 | 0 | 0.0 | 0.0 | 0.00 | 0.00 | 0.00 | 7 | 1008.1 |
| 20260508065018 | 43 | 0 | 0.0 | 0.0 | 0.00 | 0.00 | 0.00 | 7 | 1008.1 |
| 20260508064018 | 43 | 0 | 0.0 | 0.0 | 0.00 | 0.00 | 0.00 | 7 | 1008.2 |
| 20260508063018 | 42 | 0 | 0.0 | 0.0 | 0.00 | 0.00 | 0.00 | 7 | 1008.2 |
| 20260508062018 | 43 | 0 | 0.0 | 0.0 | 0.00 | 0.00 | 0.00 | 7 | 1008.2 |
| 20260508061018 | 43 | 0 | 0.0 | 0.0 | 0.00 | 0.00 | 0.00 | 7 | 1008.2 |
| 20260508060018 | 43 | 0 | 0.0 | 0.0 | 0.00 | 0.00 | 0.00 | 7 | 1008.2 |
| 20260508054018 | 44 | 0 | 0.0 | 0.0 | 0.00 | 0.00 | 0.00 | 7 | 1008.5 |
| 20260508053019 | 45 | 0 | 0.0 | 0.0 | 0.00 | 0.00 | 0.00 | 7 | 1008.5 |
| 20260508052018 | 46 | 0 | 0.0 | 0.0 | 0.00 | 0.00 | 0.00 | 7 | 1008.5 |
| 20260508051018 | 47 | 0 | 0.0 | 0.0 | 0.00 | 0.00 | 0.00 | 6 | 1008.6 |
| 20260508050018 | 47 | 221 | 2.0 | 2.0 | 0.00 | 0.00 | 0.00 | 6 | 1008.6 |
| 20260508045019 | 47 | 0 | 0.0 | 0.0 | 0.00 | 0.00 | 0.00 | 6 | 1008.5 |
| 20260508044018 | 48 | 221 | 1.0 | 2.0 | 0.00 | 0.00 | 0.00 | 6 | 1008.4 |
| 20260508043019 | 48 | 221 | 1.0 | 1.0 | 0.00 | 0.00 | 0.00 | 6 | 1008.4 |
| 20260508042018 | 49 | 221 | 2.0 | 3.0 | 0.00 | 0.00 | 0.00 | 6 | 1008.2 |
| 20260508041018 | 49 | 221 | 3.0 | 3.0 | 0.00 | 0.00 | 0.00 | 6 | 1008.2 |
| 20260508040017 | 49 | 221 | 1.0 | 2.0 | 0.00 | 0.00 | 0.00 | 6 | 1008.2 |
| 20260508035018 | 50 | 211 | 1.0 | 1.0 | 0.00 | 0.00 | 0.00 | 6 | 1008.2 |
| 20260508034018 | 50 | 240 | 1.0 | 1.0 | 0.00 | 0.00 | 0.00 | 6 | 1008.4 |
| 20260508033018 | 50 | 240 | 1.0 | 1.0 | 0.00 | 0.00 | 0.00 | 5 | 1008.4 |
| 20260508032019 | 50 | 239 | 2.0 | 2.0 | 0.00 | 0.00 | 0.00 | 5 | 1008.6 |
| 20260508031018 | 50 | 0 | 0.0 | 0.0 | 0.00 | 0.00 | 0.00 | 5 | 1008.8 |
| 20260508030018 | 50 | 236 | 2.0 | 2.0 | 0.00 | 0.00 | 0.00 | 5 | 1008.8 |
| 20260508025020 | 50 | 251 | 4.0 | 4.0 | 0.00 | 0.00 | 0.00 | 5 | 1008.8 |
| 20260508024018 | 51 | 252 | 3.0 | 3.0 | 0.00 | 0.00 | 0.00 | 5 | 1008.6 |
| 20260508023019 | 51 | 259 | 2.0 | 2.0 | 0.00 | 0.00 | 0.00 | 5 | 1008.6 |
| 20260508022018 | 51 | 211 | 3.0 | 3.0 | 0.00 | 0.00 | 0.00 | 5 | 1008.7 |
| 20260508021018 | 52 | 244 | 1.0 | 2.0 | 0.00 | 0.00 | 0.00 | 5 | 1008.6 |
| 20260508020018 | 52 | 243 | 3.0 | 5.0 | 0.00 | 0.00 | 0.00 | 4 | 1008.6 |
| 20260508015019 | 52 | 252 | 7.0 | 7.0 | 0.00 | 0.00 | 0.00 | 4 | 1008.6 |
| 20260508014019 | 52 | 265 | 4.0 | 5.0 | 0.00 | 0.00 | 0.00 | 4 | 1008.5 |
| 20260508013018 | 52 | 280 | 5.0 | 8.0 | 0.00 | 0.00 | 0.00 | 4 | 1008.5 |
| 20260508012018 | 52 | 269 | 3.0 | 4.0 | 0.00 | 0.00 | 0.00 | 4 | 1008.1 |
| 20260508011020 | 52 | 0 | 0.0 | 0.0 | 0.00 | 0.00 | 0.00 | 4 | 1007.9 |
| 20260508010018 | 52 | 317 | 1.0 | 2.0 | 0.00 | 0.00 | 0.00 | 4 | 1007.9 |
| 20260508005019 | 52 | 306 | 1.0 | 2.0 | 0.00 | 0.00 | 0.00 | 4 | 1007.9 |
| 20260508004018 | 52 | 300 | 3.0 | 3.0 | 0.00 | 0.00 | 0.00 | 4 | 1007.9 |
| 20260508003018 | 53 | 287 | 3.0 | 3.0 | 0.00 | 0.00 | 0.00 | 4 | 1007.9 |
| 20260508002017 | 53 | 304 | 6.0 | 7.0 | 0.00 | 0.00 | 0.00 | 4 | 1007.8 |
| 20260508001018 | 53 | 0 | 0.0 | 1.0 | 0.00 | 0.00 | 0.00 | 4 | 1007.9 |
| 20260508000018 | 53 | 259 | 2.0 | 4.0 | 0.00 | 0.00 | 0.00 | 4 | 1007.9 |
| 20260507235019 | 53 | 246 | 4.0 | 4.0 | 0.00 | 0.00 | 0.00 | 4 | 1007.7 |
| 20260507234019 | 54 | 253 | 3.0 | 4.0 | 0.00 | 0.00 | 0.00 | 4 | 1007.9 |
| 20260507233020 | 54 | 263 | 6.0 | 7.0 | 0.00 | 0.00 | 0.00 | 4 | 1007.9 |
| 20260507232018 | 54 | 257 | 4.0 | 5.0 | 0.00 | 0.00 | 0.00 | 4 | 1007.9 |
| 20260507231019 | 55 | 324 | 2.0 | 4.0 | 0.00 | 0.00 | 0.00 | 4 | 1007.9 |
| 20260507230017 | 55 | 13 | 3.0 | 4.0 | 0.00 | 0.00 | 0.00 | 4 | 1007.9 |
| 20260507225018 | 55 | 304 | 5.0 | 5.0 | 0.00 | 0.00 | 0.00 | 4 | 1008.0 |
| 20260507224137 | 55 | 296 | 5.0 | 5.0 | 0.00 | 0.00 | 0.00 | 4 | 1008.1 |
| 20260507224018 | 55 | 296 | 5.0 | 5.0 | 0.00 | 0.00 | 0.00 | 4 | 1008.1 |
| 20260507223018 | 55 | 263 | 6.0 | 8.0 | 0.00 | 0.00 | 0.00 | 4 | 1008.1 |
| 20260507222017 | 55 | 274 | 5.0 | 7.0 | 0.00 | 0.00 | 0.00 | 3 | 1008.1 |
| 20260507221018 | 56 | 261 | 1.0 | 4.0 | 0.00 | 0.00 | 0.00 | 4 | 1008.2 |